createdAt,value
2023-05-19T00:01:49.208Z,98064.88
2023-05-19T00:04:16.781Z,98065.78
2023-05-19T00:06:44.939Z,98063.16
2023-05-19T00:09:12.203Z,98050.72
2023-05-19T00:11:40.526Z,98051.81
2023-05-19T00:14:09.815Z,98057.69
2023-05-19T00:16:40.366Z,98052.13
2023-05-19T00:19:10.437Z,98044.34
2023-05-19T00:21:40.562Z,98048.13
2023-05-19T00:24:07.706Z,98051.28
2023-05-19T00:26:34.472Z,98043.03
2023-05-19T00:29:01.128Z,98049.00
2023-05-19T00:31:27.814Z,98044.81
2023-05-19T00:33:54.477Z,98047.09
2023-05-19T00:36:21.255Z,98043.16
2023-05-19T00:38:47.846Z,98047.91
2023-05-19T00:41:14.463Z,98047.09
2023-05-19T00:43:41.209Z,98046.63
2023-05-19T00:46:07.940Z,98036.66
2023-05-19T00:48:34.525Z,98033.75
2023-05-19T00:51:04.582Z,98036.00
2023-05-19T00:53:35.640Z,98036.47
2023-05-19T00:56:03.382Z,98033.75
2023-05-19T00:58:31.264Z,98032.28
2023-05-19T01:01:04.755Z,98031.09
2023-05-19T01:03:35.293Z,98031.34
2023-05-19T01:06:05.413Z,98026.09
2023-05-19T01:08:33.583Z,98022.50
2023-05-19T01:11:00.485Z,98020.59
2023-05-19T01:13:30.890Z,98021.38
2023-05-19T01:16:07.129Z,98013.63
2023-05-19T01:19:11.304Z,98014.91
2023-05-19T01:22:01.335Z,98016.03
2023-05-19T01:24:47.026Z,98015.63
2023-05-19T01:27:34.698Z,98022.28
2023-05-19T01:30:17.492Z,98014.97
2023-05-19T01:32:45.635Z,98018.41
2023-05-19T01:35:14.337Z,98014.13
2023-05-19T01:37:41.500Z,98013.53
2023-05-19T01:40:09.210Z,98013.16
2023-05-19T01:42:40.083Z,98008.50
2023-05-19T01:45:10.488Z,98023.34
2023-05-19T01:47:41.096Z,98012.34
2023-05-19T01:50:08.035Z,98012.59
2023-05-19T01:52:34.625Z,98007.91
2023-05-19T01:55:01.190Z,98007.84
2023-05-19T01:57:46.046Z,98004.41
2023-05-19T02:00:23.243Z,98014.28
2023-05-19T02:03:07.810Z,98011.13
2023-05-19T02:05:59.236Z,98005.03
2023-05-19T02:08:43.672Z,98003.44
2023-05-19T02:11:19.676Z,98003.53
2023-05-19T02:13:53.590Z,98011.25
2023-05-19T02:16:24.252Z,98019.22
2023-05-19T02:18:54.034Z,98011.41
2023-05-19T02:21:20.927Z,98013.41
2023-05-19T02:23:48.457Z,98010.69
2023-05-19T02:26:15.069Z,98009.09
2023-05-19T02:28:41.635Z,98008.72
2023-05-19T02:31:10.215Z,98015.78
2023-05-19T02:33:37.624Z,98009.09
2023-05-19T02:36:04.750Z,98005.56
2023-05-19T02:38:31.834Z,98004.38
2023-05-19T02:40:58.766Z,98004.38
2023-05-19T02:43:25.395Z,98000.41
2023-05-19T02:45:51.949Z,97999.25
2023-05-19T02:48:18.564Z,97998.84
2023-05-19T02:50:45.158Z,97995.22
2023-05-19T02:53:11.747Z,97998.78
2023-05-19T02:55:38.387Z,97993.72
2023-05-19T02:58:05.434Z,97992.94
2023-05-19T03:00:32.226Z,97980.84
2023-05-19T03:03:03.014Z,97987.88
2023-05-19T03:05:30.535Z,97976.44
2023-05-19T03:07:57.220Z,97985.44
2023-05-19T03:10:23.808Z,97982.28
2023-05-19T03:12:51.162Z,97983.84
2023-05-19T03:15:18.940Z,97984.44
2023-05-19T03:17:45.735Z,97988.66
2023-05-19T03:20:12.620Z,97984.69
2023-05-19T03:22:39.198Z,97981.50
2023-05-19T03:25:06.102Z,97986.63
2023-05-19T03:27:32.677Z,97987.88
2023-05-19T03:29:59.240Z,97983.13
2023-05-19T03:32:25.924Z,97985.09
2023-05-19T03:34:52.624Z,97989.06
2023-05-19T03:37:19.182Z,97991.69
2023-05-19T03:39:45.825Z,97986.09
2023-05-19T03:42:12.357Z,97985.44
2023-05-19T03:44:38.936Z,97980.31
2023-05-19T03:47:05.881Z,97992.94
2023-05-19T03:49:34.085Z,97982.09
2023-05-19T03:52:03.460Z,97989.44
2023-05-19T03:54:30.177Z,97990.63
2023-05-19T03:56:56.776Z,97988.19
2023-05-19T03:59:23.826Z,97985.13
2023-05-19T04:01:51.770Z,97989.38
2023-05-19T04:04:18.517Z,97993.34
2023-05-19T04:06:45.870Z,97988.66
2023-05-19T04:09:14.197Z,97985.16
2023-05-19T04:11:41.700Z,97991.81
2023-05-19T04:14:09.123Z,97991.41
2023-05-19T04:16:36.209Z,97984.75
2023-05-19T04:19:02.906Z,97982.28
2023-05-19T04:21:29.480Z,97987.75
2023-05-19T04:23:56.231Z,97987.00
2023-05-19T04:26:25.064Z,97980.63
2023-05-19T04:28:52.187Z,97978.75
2023-05-19T04:31:18.779Z,97980.75
2023-05-19T04:33:46.207Z,97990.88
2023-05-19T04:36:13.897Z,97994.09
2023-05-19T04:38:40.707Z,97985.50
2023-05-19T04:41:11.033Z,97992.38
2023-05-19T04:43:41.916Z,97986.22
2023-05-19T04:46:12.458Z,97984.25
2023-05-19T04:48:41.387Z,97987.72
2023-05-19T04:51:08.380Z,97986.53
2023-05-19T04:53:35.121Z,97983.78
2023-05-19T04:56:02.175Z,97984.44
2023-05-19T04:58:28.812Z,97982.06
2023-05-19T05:00:58.776Z,97982.16
2023-05-19T05:03:26.616Z,97969.47
2023-05-19T05:05:53.326Z,97981.31
2023-05-19T05:08:23.490Z,97971.38
2023-05-19T05:10:51.722Z,97974.03
2023-05-19T05:13:21.409Z,97973.31
2023-05-19T05:15:48.684Z,97975.31
2023-05-19T05:18:16.042Z,97974.81
2023-05-19T05:20:43.479Z,97977.81
2023-05-19T05:23:10.910Z,97974.81
2023-05-19T05:25:38.152Z,97967.56
2023-05-19T05:28:05.445Z,97970.66
2023-05-19T05:30:34.063Z,97965.94
2023-05-19T05:33:02.114Z,97970.03
2023-05-19T05:35:29.143Z,97969.75
2023-05-19T05:37:56.495Z,97968.75
2023-05-19T05:40:23.117Z,97971.28
2023-05-19T05:42:49.802Z,97969.81
2023-05-19T05:45:16.447Z,97971.19
2023-05-19T05:47:43.371Z,97971.97
2023-05-19T05:50:10.889Z,97975.75
2023-05-19T05:52:39.058Z,97983.50
2023-05-19T05:55:07.023Z,97978.59
2023-05-19T05:57:35.570Z,97983.06
2023-05-19T06:00:03.981Z,97982.66
2023-05-19T06:02:30.959Z,97989.72
2023-05-19T06:04:57.639Z,97986.53
2023-05-19T06:07:24.652Z,97984.59
2023-05-19T06:09:51.363Z,97982.09
2023-05-19T06:12:18.218Z,97980.97
2023-05-19T06:14:44.838Z,97971.28
2023-05-19T06:17:11.433Z,97965.91
2023-05-19T06:19:38.019Z,97969.25
2023-05-19T06:22:04.736Z,97977.38
2023-05-19T06:24:31.382Z,97970.34
2023-05-19T06:26:58.017Z,97975.06
2023-05-19T06:29:24.628Z,97971.53
2023-05-19T06:31:51.610Z,97974.91
2023-05-19T06:34:18.471Z,97971.88
2023-05-19T06:36:45.102Z,97976.91
2023-05-19T06:39:11.692Z,97977.38
2023-05-19T06:41:38.231Z,97980.13
2023-05-19T06:44:07.195Z,97982.56
2023-05-19T06:46:33.917Z,97992.16
2023-05-19T06:49:00.808Z,97987.41
2023-05-19T06:51:27.456Z,97984.66
2023-05-19T06:53:54.046Z,97986.06
2023-05-19T06:56:21.761Z,98000.38
2023-05-19T06:58:48.530Z,97988.03
2023-05-19T07:01:15.244Z,97991.53
2023-05-19T07:03:42.058Z,97980.56
2023-05-19T07:06:08.781Z,97991.53
2023-05-19T07:08:37.343Z,97991.50
2023-05-19T07:11:04.197Z,97986.06
2023-05-19T07:13:30.857Z,97983.19
2023-05-19T07:15:57.526Z,97985.72
2023-05-19T07:18:24.203Z,97980.78
2023-05-19T07:20:52.502Z,97984.88
2023-05-19T07:23:19.317Z,97983.97
2023-05-19T07:25:46.005Z,97980.19
2023-05-19T07:28:12.696Z,97970.06
2023-05-19T07:30:39.721Z,97973.25
2023-05-19T07:33:06.992Z,97975.41
2023-05-19T07:35:34.396Z,97968.28
2023-05-19T07:38:01.529Z,97967.25
2023-05-19T07:40:28.456Z,97959.41
2023-05-19T07:42:56.390Z,97961.63
2023-05-19T07:45:23.615Z,97961.72
2023-05-19T07:47:50.588Z,97958.38
2023-05-19T07:50:17.754Z,97959.50
2023-05-19T07:52:45.316Z,97958.84
2023-05-19T07:55:13.553Z,97961.22
2023-05-19T07:57:40.154Z,97966.81
2023-05-19T08:00:10.229Z,97969.31
2023-05-19T08:02:40.053Z,97968.00
2023-05-19T08:05:07.778Z,97972.66
2023-05-19T08:07:35.200Z,97968.69
2023-05-19T08:10:02.347Z,97963.34
2023-05-19T08:12:33.186Z,97969.34
2023-05-19T08:15:01.944Z,97967.09
2023-05-19T08:17:29.609Z,97970.88
2023-05-19T08:19:56.284Z,97964.28
2023-05-19T08:22:22.962Z,97964.81
2023-05-19T08:24:52.532Z,97964.16
2023-05-19T08:27:19.237Z,97966.09
2023-05-19T08:29:45.837Z,97975.06
2023-05-19T08:32:13.327Z,97971.19
2023-05-19T08:34:41.111Z,97966.91
2023-05-19T08:37:07.922Z,97963.81
2023-05-19T08:39:35.081Z,97961.56
2023-05-19T08:42:02.684Z,97958.69
2023-05-19T08:44:31.008Z,97948.22
2023-05-19T08:47:03.070Z,97955.88
2023-05-19T08:49:33.572Z,97956.44
2023-05-19T08:52:25.458Z,97949.56
2023-05-19T08:55:01.304Z,97955.53
2023-05-19T08:57:28.514Z,97952.81
2023-05-19T08:59:56.746Z,97953.34
2023-05-19T09:02:23.840Z,97949.91
2023-05-19T09:04:50.860Z,97948.06
2023-05-19T09:07:19.238Z,97944.25
2023-05-19T09:09:46.035Z,97946.56
2023-05-19T09:12:13.924Z,97941.16
2023-05-19T09:14:40.849Z,97937.88
2023-05-19T09:17:07.616Z,97936.94
2023-05-19T09:19:34.380Z,97945.53
2023-05-19T09:22:03.621Z,97947.34
2023-05-19T09:24:30.734Z,97938.66
2023-05-19T09:26:58.517Z,97941.78
2023-05-19T09:29:26.662Z,97939.09
2023-05-19T09:32:01.728Z,97938.59
2023-05-19T09:34:28.461Z,97947.88
2023-05-19T09:36:55.313Z,97930.03
2023-05-19T09:39:25.665Z,97939.25
2023-05-19T09:41:56.432Z,97934.78
2023-05-19T09:44:24.498Z,97931.66
2023-05-19T09:46:52.895Z,97923.59
2023-05-19T09:49:30.583Z,97924.75
2023-05-19T09:51:58.701Z,97919.28
2023-05-19T09:54:32.361Z,97919.91
2023-05-19T09:57:00.295Z,97918.06
2023-05-19T09:59:31.302Z,97921.81
2023-05-19T10:02:01.024Z,97915.50
2023-05-19T10:04:29.069Z,97918.00
2023-05-19T10:06:59.905Z,97916.38
2023-05-19T10:09:29.034Z,97911.53
2023-05-19T10:11:57.595Z,97911.16
2023-05-19T10:14:29.584Z,97910.69
2023-05-19T10:16:59.882Z,97908.38
2023-05-19T10:19:28.866Z,97901.53
2023-05-19T10:21:56.400Z,97902.72
2023-05-19T10:24:23.295Z,97898.56
2023-05-19T10:26:55.344Z,97897.25
2023-05-19T10:29:30.853Z,97900.16
2023-05-19T10:32:03.615Z,97890.09
2023-05-19T10:34:51.653Z,97889.84
2023-05-19T10:37:35.960Z,97890.16
2023-05-19T10:40:11.031Z,97888.94
2023-05-19T10:42:57.744Z,97887.59
2023-05-19T10:45:28.917Z,97878.97
2023-05-19T10:47:55.986Z,97876.44
2023-05-19T10:50:22.773Z,97887.38
2023-05-19T10:52:56.368Z,97890.31
2023-05-19T10:55:47.794Z,97894.41
2023-05-19T10:58:14.439Z,97892.41
2023-05-19T11:00:44.027Z,97885.91
2023-05-19T11:03:15.874Z,97883.09
2023-05-19T11:05:45.743Z,97885.72
2023-05-19T11:08:13.479Z,97893.63
2023-05-19T11:10:44.875Z,97888.06
2023-05-19T11:13:19.584Z,97883.44
2023-05-19T11:15:46.262Z,97878.56
2023-05-19T11:18:16.166Z,97883.09
2023-05-19T11:20:42.880Z,97877.34
2023-05-19T11:23:10.749Z,97881.97
2023-05-19T11:25:47.865Z,97882.72
2023-05-19T11:28:26.254Z,97881.91
2023-05-19T11:30:55.467Z,97883.16
2023-05-19T11:33:27.323Z,97878.88
2023-05-19T11:36:00.466Z,97876.63
2023-05-19T11:38:28.641Z,97876.53
2023-05-19T11:40:56.600Z,97869.38
2023-05-19T11:43:25.146Z,97867.09
2023-05-19T11:45:53.379Z,97865.97
2023-05-19T11:48:23.832Z,97860.09
2023-05-19T11:50:51.198Z,97862.13
2023-05-19T11:53:19.975Z,97853.66
2023-05-19T11:55:48.388Z,97850.31
2023-05-19T11:58:16.064Z,97857.28
2023-05-19T12:00:46.418Z,97848.75
2023-05-19T12:03:13.837Z,97844.38
2023-05-19T12:05:46.072Z,97852.78
2023-05-19T12:08:13.733Z,97839.59
2023-05-19T12:10:41.061Z,97835.41
2023-05-19T12:13:11.340Z,97827.81
2023-05-19T12:15:39.124Z,97828.81
2023-05-19T12:18:06.956Z,97827.59
2023-05-19T12:20:36.111Z,97822.00
2023-05-19T12:23:04.110Z,97823.53
2023-05-19T12:25:31.926Z,97827.97
2023-05-19T12:28:00.528Z,97837.56
2023-05-19T12:30:31.810Z,97828.25
2023-05-19T12:32:59.045Z,97824.97
2023-05-19T12:35:30.513Z,97837.88
2023-05-19T12:37:58.001Z,97828.03
2023-05-19T12:40:24.607Z,97831.13
2023-05-19T12:42:53.558Z,97826.81
2023-05-19T12:45:23.480Z,97820.63
2023-05-19T12:47:51.327Z,97822.75
2023-05-19T12:50:17.994Z,97814.94
2023-05-19T12:52:52.250Z,97814.41
2023-05-19T12:55:21.102Z,97819.41
2023-05-19T12:57:54.942Z,97816.03
2023-05-19T13:00:23.001Z,97814.28
2023-05-19T13:03:02.578Z,97820.41
2023-05-19T13:05:31.290Z,97813.25
2023-05-19T13:07:59.965Z,97810.78
2023-05-19T13:10:27.829Z,97817.88
2023-05-19T13:12:59.108Z,97819.09
2023-05-19T13:15:27.463Z,97814.78
2023-05-19T13:17:54.751Z,97817.38
2023-05-19T13:20:24.651Z,97793.63
2023-05-19T13:22:52.354Z,97797.19
2023-05-19T13:25:19.738Z,97797.34
2023-05-19T13:27:47.194Z,97796.31
2023-05-19T13:30:14.363Z,97793.22
2023-05-19T13:32:41.085Z,97791.06
2023-05-19T13:35:10.223Z,97793.69
2023-05-19T13:37:37.005Z,97790.91
2023-05-19T13:40:04.391Z,97795.69
2023-05-19T13:42:33.527Z,97788.28
2023-05-19T13:45:00.200Z,97788.28
2023-05-19T13:47:27.215Z,97779.66
2023-05-19T13:49:54.393Z,97776.44
2023-05-19T13:52:22.029Z,97774.44
2023-05-19T13:54:49.237Z,97766.09
2023-05-19T13:57:16.674Z,97761.78
2023-05-19T13:59:57.748Z,97759.78
2023-05-19T14:02:30.306Z,97769.44
2023-05-19T14:04:57.675Z,97773.91
2023-05-19T14:07:24.402Z,97776.88
2023-05-19T14:09:52.486Z,97770.09
2023-05-19T14:12:27.781Z,97764.13
2023-05-19T14:15:02.170Z,97764.50
2023-05-19T14:17:28.907Z,97753.56
2023-05-19T14:19:55.887Z,97765.13
2023-05-19T14:22:22.766Z,97756.34
2023-05-19T14:24:49.432Z,97752.44
2023-05-19T14:27:16.133Z,97745.63
2023-05-19T14:29:45.774Z,97750.16
2023-05-19T14:32:13.682Z,97742.59
2023-05-19T14:34:40.684Z,97743.59
2023-05-19T14:37:07.326Z,97735.41
2023-05-19T14:39:34.005Z,97742.38
2023-05-19T14:42:01.236Z,97734.84
2023-05-19T14:44:33.114Z,97737.75
2023-05-19T14:47:01.370Z,97742.84
2023-05-19T14:49:28.289Z,97733.56
2023-05-19T14:51:54.908Z,97733.44
2023-05-19T14:54:21.568Z,97741.19
2023-05-19T14:56:49.445Z,97736.84
2023-05-19T14:59:16.116Z,97727.78
2023-05-19T15:01:43.485Z,97734.97
2023-05-19T15:04:10.311Z,97728.84
2023-05-19T15:06:36.991Z,97730.53
2023-05-19T15:09:03.784Z,97731.00
2023-05-19T15:11:30.380Z,97733.84
2023-05-19T15:14:01.474Z,97738.09
2023-05-19T15:16:28.166Z,97727.59
2023-05-19T15:18:54.980Z,97728.75
2023-05-19T15:21:21.629Z,97724.03
2023-05-19T15:23:48.285Z,97721.59
2023-05-19T15:26:15.049Z,97721.91
2023-05-19T15:28:42.835Z,97714.97
2023-05-19T15:31:09.598Z,97709.34
2023-05-19T15:33:36.432Z,97719.84
2023-05-19T15:36:03.107Z,97711.75
2023-05-19T15:38:30.106Z,97705.09
2023-05-19T15:40:57.293Z,97712.22
2023-05-19T15:43:23.967Z,97710.16
2023-05-19T15:45:54.993Z,97710.25
2023-05-19T15:48:21.783Z,97701.00
2023-05-19T15:50:49.307Z,97708.84
2023-05-19T15:53:16.281Z,97711.31
2023-05-19T15:55:42.978Z,97702.88
2023-05-19T15:58:11.856Z,97704.72
2023-05-19T16:00:38.517Z,97708.13
2023-05-19T16:03:05.168Z,97703.81
2023-05-19T16:05:31.854Z,97702.19
2023-05-19T16:07:58.813Z,97702.50
2023-05-19T16:10:27.821Z,97702.81
2023-05-19T16:12:54.719Z,97704.50
2023-05-19T16:15:21.277Z,97702.69
2023-05-19T16:17:48.102Z,97691.88
2023-05-19T16:20:15.812Z,97705.75
2023-05-19T16:22:42.492Z,97691.72
2023-05-19T16:25:09.784Z,97691.25
2023-05-19T16:27:36.439Z,97692.00
2023-05-19T16:30:03.527Z,97685.09
2023-05-19T16:32:30.357Z,97678.97
2023-05-19T16:34:57.464Z,97676.78
2023-05-19T16:37:24.092Z,97676.47
2023-05-19T16:39:50.817Z,97669.78
2023-05-19T16:42:18.030Z,97668.72
2023-05-19T16:44:46.844Z,97675.22
2023-05-19T16:47:13.499Z,97663.84
2023-05-19T16:49:41.026Z,97664.41
2023-05-19T16:52:08.414Z,97656.13
2023-05-19T16:54:35.083Z,97657.38
2023-05-19T16:57:02.149Z,97663.78
2023-05-19T16:59:29.206Z,97662.25
2023-05-19T17:01:59.171Z,97667.22
2023-05-19T17:04:30.671Z,97655.19
2023-05-19T17:06:57.607Z,97658.75
2023-05-19T17:09:27.272Z,97653.69
2023-05-19T17:11:54.130Z,97655.06
2023-05-19T17:14:21.706Z,97657.84
2023-05-19T17:16:48.887Z,97653.09
2023-05-19T17:19:16.398Z,97652.19
2023-05-19T17:21:43.173Z,97655.41
2023-05-19T17:24:10.204Z,97655.56
2023-05-19T17:26:38.521Z,97666.78
2023-05-19T17:29:05.956Z,97659.28
2023-05-19T17:31:32.541Z,97664.19
2023-05-19T17:33:59.401Z,97665.25
2023-05-19T17:36:26.787Z,97663.56
2023-05-19T17:38:53.408Z,97654.63
2023-05-19T17:41:20.045Z,97668.94
2023-05-19T17:43:46.665Z,97665.88
2023-05-19T17:46:13.618Z,97662.66
2023-05-19T17:48:40.257Z,97659.09
2023-05-19T17:51:09.945Z,97673.13
2023-05-19T17:53:36.966Z,97664.66
2023-05-19T17:56:06.696Z,97661.72
2023-05-19T17:58:33.670Z,97662.66
2023-05-19T18:01:00.674Z,97659.09
2023-05-19T18:03:27.805Z,97674.78
2023-05-19T18:05:54.917Z,97662.31
2023-05-19T18:08:21.906Z,97666.63
2023-05-19T18:10:51.684Z,97659.53
2023-05-19T18:13:19.249Z,97660.47
2023-05-19T18:15:46.073Z,97656.63
2023-05-19T18:18:12.809Z,97665.09
2023-05-19T18:20:41.468Z,97668.75
2023-05-19T18:23:08.235Z,97664.63
2023-05-19T18:25:35.730Z,97666.91
2023-05-19T18:28:02.624Z,97662.56
2023-05-19T18:30:29.291Z,97669.06
2023-05-19T18:32:56.255Z,97669.94
2023-05-19T18:35:23.202Z,97663.50
2023-05-19T18:37:50.084Z,97655.63
2023-05-19T18:40:16.720Z,97672.34
2023-05-19T18:42:43.372Z,97671.44
2023-05-19T18:45:10.254Z,97663.44
2023-05-19T18:47:37.236Z,97667.72
2023-05-19T18:50:04.335Z,97667.63
2023-05-19T18:52:31.463Z,97665.78
2023-05-19T18:54:59.928Z,97668.53
2023-05-19T18:57:27.037Z,97659.13
2023-05-19T18:59:53.817Z,97662.38
2023-05-19T19:02:20.384Z,97669.13
2023-05-19T19:04:47.085Z,97661.34
2023-05-19T19:07:13.818Z,97677.63
2023-05-19T19:09:43.906Z,97662.28
2023-05-19T19:12:10.997Z,97685.09
2023-05-19T19:14:38.703Z,97673.22
2023-05-19T19:17:05.537Z,97679.66
2023-05-19T19:19:33.395Z,97679.41
2023-05-19T19:22:00.322Z,97677.53
2023-05-19T19:24:28.614Z,97681.44
2023-05-19T19:26:55.535Z,97689.50
2023-05-19T19:29:22.288Z,97687.63
2023-05-19T19:31:49.095Z,97689.94
2023-05-19T19:34:16.015Z,97695.09
2023-05-19T19:36:42.726Z,97699.84
2023-05-19T19:39:09.580Z,97694.25
2023-05-19T19:41:36.812Z,97694.03
2023-05-19T19:44:03.750Z,97692.31
2023-05-19T19:46:30.492Z,97683.50
2023-05-19T19:49:00.451Z,97689.34
2023-05-19T19:51:28.144Z,97689.81
2023-05-19T19:53:55.019Z,97705.19
2023-05-19T19:56:24.677Z,97704.72
2023-05-19T19:58:51.416Z,97701.00
2023-05-19T20:01:20.610Z,97706.44
2023-05-19T20:03:48.015Z,97705.53
2023-05-19T20:06:14.849Z,97704.78
2023-05-19T20:08:41.678Z,97698.72
2023-05-19T20:11:09.656Z,97698.63
2023-05-19T20:13:36.683Z,97701.66
2023-05-19T20:16:03.379Z,97695.56
2023-05-19T20:18:30.200Z,97711.59
2023-05-19T20:20:57.064Z,97693.03
2023-05-19T20:23:23.687Z,97697.69
2023-05-19T20:26:06.687Z,97705.09
2023-05-19T20:28:37.038Z,97703.22
2023-05-19T20:31:03.882Z,97705.84
2023-05-19T20:33:30.643Z,97702.78
2023-05-19T20:35:57.236Z,97704.88
2023-05-19T20:38:23.941Z,97708.28
2023-05-19T20:40:51.134Z,97704.31
2023-05-19T20:43:17.714Z,97692.00
2023-05-19T20:45:44.597Z,97697.84
2023-05-19T20:48:11.856Z,97689.13
2023-05-19T20:50:39.712Z,97694.63
2023-05-19T20:53:07.529Z,97695.41
2023-05-19T20:55:36.339Z,97694.19
2023-05-19T20:58:03.116Z,97694.53
2023-05-19T21:00:31.537Z,97689.53
2023-05-19T21:02:58.526Z,97691.84
2023-05-19T21:05:25.248Z,97695.72
2023-05-19T21:07:52.127Z,97697.69
2023-05-19T21:10:18.880Z,97693.63
2023-05-19T21:12:46.446Z,97695.72
2023-05-19T21:15:13.191Z,97689.09
2023-05-19T21:17:39.983Z,97704.09
2023-05-19T21:20:07.151Z,97693.59
2023-05-19T21:22:35.811Z,97687.63
2023-05-19T21:25:02.570Z,97684.31
2023-05-19T21:27:29.206Z,97686.31
2023-05-19T21:29:56.156Z,97684.53
2023-05-19T21:32:22.794Z,97682.31
2023-05-19T21:34:49.474Z,97680.53
2023-05-19T21:37:17.426Z,97680.06
2023-05-19T21:39:44.492Z,97683.16
2023-05-19T21:42:11.189Z,97674.69
2023-05-19T21:44:37.938Z,97682.69
2023-05-19T21:47:04.615Z,97682.59
2023-05-19T21:49:31.530Z,97675.44
2023-05-19T21:51:58.422Z,97681.25
2023-05-19T21:54:25.110Z,97688.13
2023-05-19T21:56:51.756Z,97682.59
2023-05-19T21:59:18.624Z,97685.00
2023-05-19T22:01:45.496Z,97692.75
2023-05-19T22:04:13.640Z,97682.81
2023-05-19T22:06:40.270Z,97681.53
2023-05-19T22:09:07.425Z,97671.50
2023-05-19T22:11:34.045Z,97672.72
2023-05-19T22:14:00.654Z,97672.38
2023-05-19T22:16:28.928Z,97681.31
2023-05-19T22:18:55.901Z,97671.63
2023-05-19T22:21:22.780Z,97674.94
2023-05-19T22:23:49.358Z,97678.03
2023-05-19T22:26:16.492Z,97676.16
2023-05-19T22:28:43.196Z,97680.91
2023-05-19T22:31:09.838Z,97674.19
2023-05-19T22:33:36.473Z,97673.41
2023-05-19T22:36:03.167Z,97668.13
2023-05-19T22:38:29.824Z,97667.91
2023-05-19T22:40:56.391Z,97667.34
2023-05-19T22:43:23.275Z,97664.81
2023-05-19T22:45:49.919Z,97669.13
2023-05-19T22:48:16.845Z,97668.06
2023-05-19T22:50:43.737Z,97661.19
2023-05-19T22:53:10.353Z,97654.72
2023-05-19T22:55:37.119Z,97660.56
2023-05-19T22:58:03.809Z,97659.78
2023-05-19T23:00:30.639Z,97656.69
2023-05-19T23:02:58.745Z,97652.03
2023-05-19T23:05:25.852Z,97657.84
2023-05-19T23:07:52.738Z,97658.63
2023-05-19T23:10:19.713Z,97655.75
2023-05-19T23:12:46.448Z,97654.97
2023-05-19T23:15:13.153Z,97648.81
2023-05-19T23:17:39.797Z,97646.19
2023-05-19T23:20:07.049Z,97639.66
2023-05-19T23:22:33.621Z,97626.44
2023-05-19T23:25:02.296Z,97621.31
2023-05-19T23:27:29.202Z,97626.84
2023-05-19T23:29:55.870Z,97624.97
2023-05-19T23:32:22.672Z,97636.88
2023-05-19T23:34:49.324Z,97640.16
2023-05-19T23:37:16.213Z,97634.50
2023-05-19T23:39:44.346Z,97639.78
2023-05-19T23:42:12.070Z,97646.59
2023-05-19T23:44:38.724Z,97637.69
2023-05-19T23:47:05.720Z,97635.19
2023-05-19T23:49:32.441Z,97632.56
2023-05-19T23:51:59.083Z,97629.66
2023-05-19T23:54:26.949Z,97625.34
2023-05-19T23:56:54.722Z,97629.94
2023-05-19T23:59:21.668Z,97623.31
